sensor_id;sensor_type;location;lat;lon;timestamp;P1;durP1;ratioP1;P2;durP2;ratioP2
5762;SDS011;2906;53.282;9.508;2022-08-03T00:00:15;5.60;;;4.90;;
5762;SDS011;2906;53.282;9.508;2022-08-03T00:01:17;8.90;;;5.60;;
5762;SDS011;2906;53.282;9.508;2022-08-03T00:02:19;6.53;;;5.13;;
5762;SDS011;2906;53.282;9.508;2022-08-03T00:03:20;6.57;;;4.80;;
5762;SDS011;2906;53.282;9.508;2022-08-03T00:04:23;7.80;;;5.57;;
5762;SDS011;2906;53.282;9.508;2022-08-03T00:05:24;12.60;;;5.10;;
5762;SDS011;2906;53.282;9.508;2022-08-03T00:06:26;7.30;;;5.30;;
5762;SDS011;2906;53.282;9.508;2022-08-03T00:07:29;10.20;;;5.70;;
5762;SDS011;2906;53.282;9.508;2022-08-03T00:08:32;7.70;;;5.80;;
5762;SDS011;2906;53.282;9.508;2022-08-03T00:09:33;7.67;;;5.03;;
5762;SDS011;2906;53.282;9.508;2022-08-03T00:10:35;9.93;;;5.37;;
5762;SDS011;2906;53.282;9.508;2022-08-03T00:11:37;7.10;;;5.17;;
5762;SDS011;2906;53.282;9.508;2022-08-03T00:12:39;7.93;;;5.53;;
5762;SDS011;2906;53.282;9.508;2022-08-03T00:13:41;7.43;;;5.30;;
5762;SDS011;2906;53.282;9.508;2022-08-03T00:14:43;12.43;;;5.90;;
5762;SDS011;2906;53.282;9.508;2022-08-03T00:15:45;6.47;;;5.40;;
5762;SDS011;2906;53.282;9.508;2022-08-03T00:16:47;7.93;;;5.53;;
5762;SDS011;2906;53.282;9.508;2022-08-03T00:17:48;7.20;;;4.80;;
5762;SDS011;2906;53.282;9.508;2022-08-03T00:18:51;6.13;;;5.50;;
5762;SDS011;2906;53.282;9.508;2022-08-03T00:19:52;7.43;;;5.40;;
5762;SDS011;2906;53.282;9.508;2022-08-03T00:20:55;10.37;;;5.83;;
5762;SDS011;2906;53.282;9.508;2022-08-03T00:21:56;8.97;;;5.50;;
5762;SDS011;2906;53.282;9.508;2022-08-03T00:23:00;6.40;;;5.60;;
5762;SDS011;2906;53.282;9.508;2022-08-03T00:24:01;9.23;;;5.80;;
5762;SDS011;2906;53.282;9.508;2022-08-03T00:25:04;5.53;;;4.93;;
5762;SDS011;2906;53.282;9.508;2022-08-03T00:26:05;6.00;;;5.07;;
5762;SDS011;2906;53.282;9.508;2022-08-03T00:27:07;7.50;;;5.50;;
5762;SDS011;2906;53.282;9.508;2022-08-03T00:28:09;6.40;;;5.07;;
5762;SDS011;2906;53.282;9.508;2022-08-03T00:29:11;13.33;;;6.70;;
5762;SDS011;2906;53.282;9.508;2022-08-03T00:30:12;9.10;;;5.43;;
5762;SDS011;2906;53.282;9.508;2022-08-03T00:31:15;8.07;;;5.43;;
5762;SDS011;2906;53.282;9.508;2022-08-03T00:32:16;8.70;;;5.73;;
5762;SDS011;2906;53.282;9.508;2022-08-03T00:33:18;12.10;;;5.77;;
5762;SDS011;2906;53.282;9.508;2022-08-03T00:34:19;13.20;;;5.83;;
5762;SDS011;2906;53.282;9.508;2022-08-03T00:35:22;13.10;;;5.10;;
5762;SDS011;2906;53.282;9.508;2022-08-03T00:36:24;8.60;;;5.17;;
5762;SDS011;2906;53.282;9.508;2022-08-03T00:37:27;7.03;;;6.07;;
5762;SDS011;2906;53.282;9.508;2022-08-03T00:38:29;8.80;;;5.67;;
5762;SDS011;2906;53.282;9.508;2022-08-03T00:39:31;10.27;;;5.40;;
5762;SDS011;2906;53.282;9.508;2022-08-03T00:40:33;6.60;;;5.90;;
5762;SDS011;2906;53.282;9.508;2022-08-03T00:41:35;8.70;;;5.80;;
5762;SDS011;2906;53.282;9.508;2022-08-03T00:42:45;8.27;;;6.07;;
5762;SDS011;2906;53.282;9.508;2022-08-03T00:43:47;7.60;;;5.80;;
5762;SDS011;2906;53.282;9.508;2022-08-03T00:44:49;9.70;;;6.80;;
5762;SDS011;2906;53.282;9.508;2022-08-03T00:45:51;9.30;;;6.13;;
5762;SDS011;2906;53.282;9.508;2022-08-03T00:46:53;6.77;;;5.60;;
5762;SDS011;2906;53.282;9.508;2022-08-03T00:47:55;12.83;;;5.50;;
5762;SDS011;2906;53.282;9.508;2022-08-03T00:48:57;8.80;;;6.30;;
5762;SDS011;2906;53.282;9.508;2022-08-03T00:49:59;7.70;;;6.33;;
5762;SDS011;2906;53.282;9.508;2022-08-03T00:51:01;16.33;;;5.90;;
5762;SDS011;2906;53.282;9.508;2022-08-03T00:52:03;9.70;;;6.50;;
5762;SDS011;2906;53.282;9.508;2022-08-03T00:53:06;9.17;;;5.87;;
5762;SDS011;2906;53.282;9.508;2022-08-03T00:54:09;10.97;;;6.50;;
5762;SDS011;2906;53.282;9.508;2022-08-03T00:55:11;11.03;;;6.93;;
5762;SDS011;2906;53.282;9.508;2022-08-03T00:56:13;13.77;;;5.87;;
5762;SDS011;2906;53.282;9.508;2022-08-03T00:57:15;7.03;;;5.73;;
5762;SDS011;2906;53.282;9.508;2022-08-03T00:58:17;7.07;;;6.37;;
5762;SDS011;2906;53.282;9.508;2022-08-03T00:59:19;8.57;;;6.20;;
5762;SDS011;2906;53.282;9.508;2022-08-03T01:00:22;8.73;;;6.27;;
5762;SDS011;2906;53.282;9.508;2022-08-03T01:01:25;8.73;;;6.20;;
5762;SDS011;2906;53.282;9.508;2022-08-03T01:02:26;10.63;;;6.53;;
5762;SDS011;2906;53.282;9.508;2022-08-03T01:03:28;8.90;;;6.37;;
5762;SDS011;2906;53.282;9.508;2022-08-03T01:04:29;10.27;;;6.60;;
5762;SDS011;2906;53.282;9.508;2022-08-03T01:05:32;9.40;;;6.60;;
5762;SDS011;2906;53.282;9.508;2022-08-03T01:06:40;10.97;;;6.63;;
5762;SDS011;2906;53.282;9.508;2022-08-03T01:07:48;8.83;;;6.70;;
5762;SDS011;2906;53.282;9.508;2022-08-03T01:08:56;7.20;;;6.23;;
5762;SDS011;2906;53.282;9.508;2022-08-03T01:10:04;6.93;;;6.13;;
5762;SDS011;2906;53.282;9.508;2022-08-03T01:11:09;8.13;;;6.20;;
5762;SDS011;2906;53.282;9.508;2022-08-03T01:12:14;7.90;;;6.33;;
5762;SDS011;2906;53.282;9.508;2022-08-03T01:13:20;11.07;;;6.87;;
5762;SDS011;2906;53.282;9.508;2022-08-03T01:14:26;7.72;;;6.90;;
5762;SDS011;2906;53.282;9.508;2022-08-03T01:15:33;8.23;;;6.60;;
5762;SDS011;2906;53.282;9.508;2022-08-03T01:16:40;7.53;;;5.80;;
5762;SDS011;2906;53.282;9.508;2022-08-03T01:17:48;8.18;;;6.38;;
5762;SDS011;2906;53.282;9.508;2022-08-03T01:18:54;7.83;;;5.90;;
5762;SDS011;2906;53.282;9.508;2022-08-03T01:19:58;6.93;;;6.20;;
5762;SDS011;2906;53.282;9.508;2022-08-03T01:21:03;7.50;;;6.70;;
5762;SDS011;2906;53.282;9.508;2022-08-03T01:22:09;11.37;;;6.50;;
5762;SDS011;2906;53.282;9.508;2022-08-03T01:23:22;10.20;;;6.40;;
5762;SDS011;2906;53.282;9.508;2022-08-03T01:24:30;9.55;;;7.18;;
5762;SDS011;2906;53.282;9.508;2022-08-03T01:25:43;6.67;;;5.80;;
5762;SDS011;2906;53.282;9.508;2022-08-03T01:26:53;8.77;;;6.47;;
5762;SDS011;2906;53.282;9.508;2022-08-03T01:28:00;8.87;;;6.03;;
5762;SDS011;2906;53.282;9.508;2022-08-03T01:29:04;9.45;;;6.40;;
5762;SDS011;2906;53.282;9.508;2022-08-03T01:30:10;7.80;;;6.63;;
5762;SDS011;2906;53.282;9.508;2022-08-03T01:31:12;8.18;;;5.82;;
5762;SDS011;2906;53.282;9.508;2022-08-03T01:32:18;7.82;;;6.90;;
5762;SDS011;2906;53.282;9.508;2022-08-03T01:33:21;9.40;;;6.40;;
5762;SDS011;2906;53.282;9.508;2022-08-03T01:34:26;10.00;;;6.80;;
5762;SDS011;2906;53.282;9.508;2022-08-03T01:35:31;7.93;;;6.95;;
5762;SDS011;2906;53.282;9.508;2022-08-03T01:36:34;10.20;;;6.23;;
5762;SDS011;2906;53.282;9.508;2022-08-03T01:37:38;7.80;;;6.53;;
5762;SDS011;2906;53.282;9.508;2022-08-03T01:38:42;6.67;;;5.97;;
5762;SDS011;2906;53.282;9.508;2022-08-03T01:39:44;9.05;;;6.32;;
5762;SDS011;2906;53.282;9.508;2022-08-03T01:40:47;11.20;;;7.13;;
5762;SDS011;2906;53.282;9.508;2022-08-03T01:41:52;14.10;;;6.30;;
5762;SDS011;2906;53.282;9.508;2022-08-03T01:42:58;9.88;;;6.13;;
5762;SDS011;2906;53.282;9.508;2022-08-03T01:44:00;7.77;;;6.20;;
5762;SDS011;2906;53.282;9.508;2022-08-03T01:45:04;9.25;;;6.65;;
5762;SDS011;2906;53.282;9.508;2022-08-03T01:46:06;7.83;;;6.67;;
5762;SDS011;2906;53.282;9.508;2022-08-03T01:47:09;7.40;;;6.70;;
5762;SDS011;2906;53.282;9.508;2022-08-03T01:48:11;13.07;;;7.25;;
5762;SDS011;2906;53.282;9.508;2022-08-03T01:49:16;9.60;;;6.93;;
5762;SDS011;2906;53.282;9.508;2022-08-03T01:50:18;7.60;;;6.57;;
5762;SDS011;2906;53.282;9.508;2022-08-03T01:51:22;13.43;;;7.15;;
5762;SDS011;2906;53.282;9.508;2022-08-03T01:52:23;9.03;;;6.53;;
5762;SDS011;2906;53.282;9.508;2022-08-03T01:53:26;9.05;;;6.28;;
5762;SDS011;2906;53.282;9.508;2022-08-03T01:54:28;9.60;;;6.47;;
5762;SDS011;2906;53.282;9.508;2022-08-03T01:55:30;8.30;;;6.80;;
5762;SDS011;2906;53.282;9.508;2022-08-03T01:56:32;11.23;;;6.47;;
5762;SDS011;2906;53.282;9.508;2022-08-03T01:57:36;7.97;;;5.32;;
5762;SDS011;2906;53.282;9.508;2022-08-03T01:58:38;9.10;;;6.75;;
5762;SDS011;2906;53.282;9.508;2022-08-03T01:59:41;8.57;;;6.43;;
5762;SDS011;2906;53.282;9.508;2022-08-03T02:00:43;7.20;;;6.50;;
5762;SDS011;2906;53.282;9.508;2022-08-03T02:01:47;8.30;;;5.90;;
5762;SDS011;2906;53.282;9.508;2022-08-03T02:02:51;10.07;;;6.53;;
5762;SDS011;2906;53.282;9.508;2022-08-03T02:03:55;8.98;;;6.72;;
5762;SDS011;2906;53.282;9.508;2022-08-03T02:04:58;9.10;;;6.63;;
5762;SDS011;2906;53.282;9.508;2022-08-03T02:06:01;9.00;;;7.22;;
5762;SDS011;2906;53.282;9.508;2022-08-03T02:07:03;7.82;;;6.45;;
5762;SDS011;2906;53.282;9.508;2022-08-03T02:08:06;10.20;;;6.65;;
5762;SDS011;2906;53.282;9.508;2022-08-03T02:09:09;9.52;;;6.82;;
5762;SDS011;2906;53.282;9.508;2022-08-03T02:10:13;8.13;;;7.00;;
5762;SDS011;2906;53.282;9.508;2022-08-03T02:11:16;9.10;;;6.32;;
5762;SDS011;2906;53.282;9.508;2022-08-03T02:12:18;7.35;;;6.50;;
5762;SDS011;2906;53.282;9.508;2022-08-03T02:13:21;8.27;;;6.97;;
5762;SDS011;2906;53.282;9.508;2022-08-03T02:14:23;12.05;;;7.47;;
5762;SDS011;2906;53.282;9.508;2022-08-03T02:15:26;7.85;;;6.65;;
5762;SDS011;2906;53.282;9.508;2022-08-03T02:16:28;9.07;;;7.50;;
5762;SDS011;2906;53.282;9.508;2022-08-03T02:17:33;7.90;;;6.95;;
5762;SDS011;2906;53.282;9.508;2022-08-03T02:18:35;7.32;;;6.63;;
5762;SDS011;2906;53.282;9.508;2022-08-03T02:19:38;8.82;;;6.43;;
5762;SDS011;2906;53.282;9.508;2022-08-03T02:20:42;10.40;;;8.00;;
5762;SDS011;2906;53.282;9.508;2022-08-03T02:21:44;9.23;;;7.70;;
5762;SDS011;2906;53.282;9.508;2022-08-03T02:22:47;10.05;;;8.05;;
5762;SDS011;2906;53.282;9.508;2022-08-03T02:23:49;10.45;;;8.18;;
5762;SDS011;2906;53.282;9.508;2022-08-03T02:24:51;10.50;;;7.78;;
5762;SDS011;2906;53.282;9.508;2022-08-03T02:25:55;9.45;;;7.05;;
5762;SDS011;2906;53.282;9.508;2022-08-03T02:26:58;7.70;;;6.80;;
5762;SDS011;2906;53.282;9.508;2022-08-03T02:28:00;13.80;;;7.32;;
5762;SDS011;2906;53.282;9.508;2022-08-03T02:29:08;9.15;;;7.88;;
5762;SDS011;2906;53.282;9.508;2022-08-03T02:30:11;9.50;;;7.32;;
5762;SDS011;2906;53.282;9.508;2022-08-03T02:31:15;9.48;;;7.28;;
5762;SDS011;2906;53.282;9.508;2022-08-03T02:32:19;9.55;;;7.75;;
5762;SDS011;2906;53.282;9.508;2022-08-03T02:33:25;11.02;;;7.88;;
5762;SDS011;2906;53.282;9.508;2022-08-03T02:34:27;12.13;;;7.95;;
5762;SDS011;2906;53.282;9.508;2022-08-03T02:35:30;12.45;;;7.60;;
5762;SDS011;2906;53.282;9.508;2022-08-03T02:36:34;8.80;;;6.95;;
5762;SDS011;2906;53.282;9.508;2022-08-03T02:37:39;8.35;;;7.03;;
5762;SDS011;2906;53.282;9.508;2022-08-03T02:38:42;8.45;;;7.00;;
5762;SDS011;2906;53.282;9.508;2022-08-03T02:39:44;7.80;;;6.88;;
5762;SDS011;2906;53.282;9.508;2022-08-03T02:40:48;8.98;;;7.50;;
5762;SDS011;2906;53.282;9.508;2022-08-03T02:41:50;7.90;;;7.10;;
5762;SDS011;2906;53.282;9.508;2022-08-03T02:42:55;9.35;;;8.07;;
5762;SDS011;2906;53.282;9.508;2022-08-03T02:43:59;10.23;;;8.60;;
5762;SDS011;2906;53.282;9.508;2022-08-03T02:45:04;12.18;;;8.32;;
5762;SDS011;2906;53.282;9.508;2022-08-03T02:46:06;10.32;;;7.93;;
5762;SDS011;2906;53.282;9.508;2022-08-03T02:47:09;9.73;;;7.70;;
5762;SDS011;2906;53.282;9.508;2022-08-03T02:48:11;9.52;;;7.30;;
5762;SDS011;2906;53.282;9.508;2022-08-03T02:49:18;13.55;;;7.43;;
5762;SDS011;2906;53.282;9.508;2022-08-03T02:50:21;10.30;;;8.02;;
5762;SDS011;2906;53.282;9.508;2022-08-03T02:51:24;10.10;;;7.70;;
5762;SDS011;2906;53.282;9.508;2022-08-03T02:52:28;10.95;;;8.27;;
5762;SDS011;2906;53.282;9.508;2022-08-03T02:53:31;11.77;;;7.68;;
5762;SDS011;2906;53.282;9.508;2022-08-03T02:54:33;9.50;;;8.52;;
5762;SDS011;2906;53.282;9.508;2022-08-03T02:55:37;16.40;;;8.50;;
5762;SDS011;2906;53.282;9.508;2022-08-03T02:56:39;10.57;;;7.68;;
5762;SDS011;2906;53.282;9.508;2022-08-03T02:57:42;9.75;;;7.57;;
5762;SDS011;2906;53.282;9.508;2022-08-03T02:58:45;9.30;;;8.05;;
5762;SDS011;2906;53.282;9.508;2022-08-03T02:59:48;8.80;;;7.90;;
5762;SDS011;2906;53.282;9.508;2022-08-03T03:00:51;8.60;;;7.38;;
5762;SDS011;2906;53.282;9.508;2022-08-03T03:01:53;9.60;;;7.35;;
5762;SDS011;2906;53.282;9.508;2022-08-03T03:02:56;11.75;;;7.55;;
5762;SDS011;2906;53.282;9.508;2022-08-03T03:03:58;21.63;;;8.00;;
5762;SDS011;2906;53.282;9.508;2022-08-03T03:05:02;12.82;;;8.30;;
5762;SDS011;2906;53.282;9.508;2022-08-03T03:06:04;9.00;;;7.45;;
5762;SDS011;2906;53.282;9.508;2022-08-03T03:07:07;10.80;;;8.20;;
5762;SDS011;2906;53.282;9.508;2022-08-03T03:08:09;11.07;;;7.85;;
5762;SDS011;2906;53.282;9.508;2022-08-03T03:09:13;9.35;;;8.00;;
5762;SDS011;2906;53.282;9.508;2022-08-03T03:10:14;9.55;;;7.88;;
5762;SDS011;2906;53.282;9.508;2022-08-03T03:11:17;9.43;;;7.10;;
5762;SDS011;2906;53.282;9.508;2022-08-03T03:12:19;10.25;;;7.80;;
5762;SDS011;2906;53.282;9.508;2022-08-03T03:13:22;18.17;;;8.00;;
5762;SDS011;2906;53.282;9.508;2022-08-03T03:14:23;10.73;;;8.10;;
5762;SDS011;2906;53.282;9.508;2022-08-03T03:15:27;10.13;;;8.77;;
5762;SDS011;2906;53.282;9.508;2022-08-03T03:16:30;10.43;;;8.57;;
5762;SDS011;2906;53.282;9.508;2022-08-03T03:17:33;19.20;;;9.02;;
5762;SDS011;2906;53.282;9.508;2022-08-03T03:18:36;10.07;;;8.77;;
5762;SDS011;2906;53.282;9.508;2022-08-03T03:19:39;9.95;;;8.95;;
5762;SDS011;2906;53.282;9.508;2022-08-03T03:20:42;11.07;;;8.40;;
5762;SDS011;2906;53.282;9.508;2022-08-03T03:21:46;10.25;;;8.88;;
5762;SDS011;2906;53.282;9.508;2022-08-03T03:22:48;11.48;;;7.75;;
5762;SDS011;2906;53.282;9.508;2022-08-03T03:23:51;9.13;;;8.25;;
5762;SDS011;2906;53.282;9.508;2022-08-03T03:24:52;15.00;;;8.88;;
5762;SDS011;2906;53.282;9.508;2022-08-03T03:25:56;10.02;;;8.70;;
5762;SDS011;2906;53.282;9.508;2022-08-03T03:26:58;10.02;;;8.32;;
5762;SDS011;2906;53.282;9.508;2022-08-03T03:28:00;10.13;;;8.25;;
5762;SDS011;2906;53.282;9.508;2022-08-03T03:29:02;9.50;;;8.05;;
5762;SDS011;2906;53.282;9.508;2022-08-03T03:30:05;10.85;;;9.10;;
5762;SDS011;2906;53.282;9.508;2022-08-03T03:31:07;10.00;;;8.20;;
5762;SDS011;2906;53.282;9.508;2022-08-03T03:32:09;11.80;;;9.10;;
5762;SDS011;2906;53.282;9.508;2022-08-03T03:33:11;9.93;;;8.82;;
5762;SDS011;2906;53.282;9.508;2022-08-03T03:34:13;13.35;;;9.07;;
5762;SDS011;2906;53.282;9.508;2022-08-03T03:35:16;12.38;;;8.68;;
5762;SDS011;2906;53.282;9.508;2022-08-03T03:36:19;12.85;;;9.32;;
5762;SDS011;2906;53.282;9.508;2022-08-03T03:37:21;11.05;;;8.90;;
5762;SDS011;2906;53.282;9.508;2022-08-03T03:38:22;9.23;;;8.27;;
5762;SDS011;2906;53.282;9.508;2022-08-03T03:39:25;18.67;;;9.00;;
5762;SDS011;2906;53.282;9.508;2022-08-03T03:40:26;19.70;;;9.43;;
5762;SDS011;2906;53.282;9.508;2022-08-03T03:41:29;11.30;;;9.25;;
5762;SDS011;2906;53.282;9.508;2022-08-03T03:42:30;14.02;;;8.75;;
5762;SDS011;2906;53.282;9.508;2022-08-03T03:43:33;13.18;;;8.38;;
5762;SDS011;2906;53.282;9.508;2022-08-03T03:44:34;10.82;;;8.00;;
5762;SDS011;2906;53.282;9.508;2022-08-03T03:45:36;9.88;;;8.63;;
5762;SDS011;2906;53.282;9.508;2022-08-03T03:46:38;9.35;;;8.05;;
5762;SDS011;2906;53.282;9.508;2022-08-03T03:47:40;9.85;;;8.57;;
5762;SDS011;2906;53.282;9.508;2022-08-03T03:48:42;17.85;;;8.55;;
5762;SDS011;2906;53.282;9.508;2022-08-03T03:49:45;15.05;;;9.13;;
5762;SDS011;2906;53.282;9.508;2022-08-03T03:50:47;10.60;;;9.05;;
5762;SDS011;2906;53.282;9.508;2022-08-03T03:51:52;10.57;;;8.43;;
5762;SDS011;2906;53.282;9.508;2022-08-03T03:52:55;17.85;;;8.40;;
5762;SDS011;2906;53.282;9.508;2022-08-03T03:53:56;11.15;;;9.00;;
5762;SDS011;2906;53.282;9.508;2022-08-03T03:54:58;8.50;;;7.70;;
5762;SDS011;2906;53.282;9.508;2022-08-03T03:56:00;12.02;;;9.23;;
5762;SDS011;2906;53.282;9.508;2022-08-03T03:57:02;12.00;;;8.55;;
5762;SDS011;2906;53.282;9.508;2022-08-03T03:58:03;10.23;;;8.23;;
5762;SDS011;2906;53.282;9.508;2022-08-03T03:59:05;9.73;;;8.60;;
5762;SDS011;2906;53.282;9.508;2022-08-03T04:00:07;11.13;;;8.95;;
5762;SDS011;2906;53.282;9.508;2022-08-03T04:01:09;11.98;;;8.32;;
5762;SDS011;2906;53.282;9.508;2022-08-03T04:02:12;17.13;;;8.70;;
5762;SDS011;2906;53.282;9.508;2022-08-03T04:03:15;11.35;;;8.50;;
5762;SDS011;2906;53.282;9.508;2022-08-03T04:04:16;12.15;;;9.00;;
5762;SDS011;2906;53.282;9.508;2022-08-03T04:05:32;9.00;;;8.10;;
5762;SDS011;2906;53.282;9.508;2022-08-03T04:06:48;8.98;;;8.10;;
5762;SDS011;2906;53.282;9.508;2022-08-03T04:08:06;8.73;;;7.85;;
5762;SDS011;2906;53.282;9.508;2022-08-03T04:09:23;9.70;;;8.70;;
5762;SDS011;2906;53.282;9.508;2022-08-03T04:10:40;8.85;;;7.95;;
5762;SDS011;2906;53.282;9.508;2022-08-03T04:11:58;9.48;;;8.48;;
5762;SDS011;2906;53.282;9.508;2022-08-03T04:13:01;11.15;;;8.82;;
5762;SDS011;2906;53.282;9.508;2022-08-03T04:14:05;11.15;;;8.98;;
5762;SDS011;2906;53.282;9.508;2022-08-03T04:15:08;10.10;;;8.73;;
5762;SDS011;2906;53.282;9.508;2022-08-03T04:16:13;10.30;;;8.32;;
5762;SDS011;2906;53.282;9.508;2022-08-03T04:17:16;9.32;;;7.85;;
5762;SDS011;2906;53.282;9.508;2022-08-03T04:18:18;12.68;;;8.98;;
5762;SDS011;2906;53.282;9.508;2022-08-03T04:19:23;11.00;;;8.13;;
5762;SDS011;2906;53.282;9.508;2022-08-03T04:20:26;10.30;;;8.75;;
5762;SDS011;2906;53.282;9.508;2022-08-03T04:21:30;11.35;;;9.20;;
5762;SDS011;2906;53.282;9.508;2022-08-03T04:22:32;12.88;;;9.45;;
5762;SDS011;2906;53.282;9.508;2022-08-03T04:23:37;13.88;;;9.05;;
5762;SDS011;2906;53.282;9.508;2022-08-03T04:24:40;10.30;;;8.95;;
5762;SDS011;2906;53.282;9.508;2022-08-03T04:25:44;10.90;;;9.38;;
5762;SDS011;2906;53.282;9.508;2022-08-03T04:26:46;11.50;;;8.23;;
5762;SDS011;2906;53.282;9.508;2022-08-03T04:27:50;10.38;;;9.27;;
5762;SDS011;2906;53.282;9.508;2022-08-03T04:28:54;10.52;;;8.63;;
5762;SDS011;2906;53.282;9.508;2022-08-03T04:29:57;11.57;;;9.35;;
5762;SDS011;2906;53.282;9.508;2022-08-03T04:30:59;12.80;;;8.63;;
5762;SDS011;2906;53.282;9.508;2022-08-03T04:32:03;11.02;;;9.55;;
5762;SDS011;2906;53.282;9.508;2022-08-03T04:33:05;9.68;;;8.68;;
5762;SDS011;2906;53.282;9.508;2022-08-03T04:34:08;10.30;;;9.30;;
5762;SDS011;2906;53.282;9.508;2022-08-03T04:35:10;10.40;;;8.70;;
5762;SDS011;2906;53.282;9.508;2022-08-03T04:36:14;10.90;;;9.50;;
5762;SDS011;2906;53.282;9.508;2022-08-03T04:37:18;9.98;;;8.98;;
5762;SDS011;2906;53.282;9.508;2022-08-03T04:38:25;11.73;;;9.18;;
5762;SDS011;2906;53.282;9.508;2022-08-03T04:39:29;10.45;;;9.32;;
5762;SDS011;2906;53.282;9.508;2022-08-03T04:40:32;9.95;;;8.95;;
5762;SDS011;2906;53.282;9.508;2022-08-03T04:41:34;10.18;;;8.70;;
5762;SDS011;2906;53.282;9.508;2022-08-03T04:42:36;19.27;;;9.50;;
5762;SDS011;2906;53.282;9.508;2022-08-03T04:43:38;11.52;;;8.95;;
5762;SDS011;2906;53.282;9.508;2022-08-03T04:44:41;14.45;;;9.57;;
5762;SDS011;2906;53.282;9.508;2022-08-03T04:45:45;11.13;;;9.13;;
5762;SDS011;2906;53.282;9.508;2022-08-03T04:46:48;11.90;;;8.93;;
5762;SDS011;2906;53.282;9.508;2022-08-03T04:47:50;15.57;;;10.18;;
5762;SDS011;2906;53.282;9.508;2022-08-03T04:48:52;11.80;;;8.80;;
5762;SDS011;2906;53.282;9.508;2022-08-03T04:49:54;12.70;;;8.93;;
5762;SDS011;2906;53.282;9.508;2022-08-03T04:50:56;11.13;;;9.30;;
5762;SDS011;2906;53.282;9.508;2022-08-03T04:51:59;10.93;;;9.30;;
5762;SDS011;2906;53.282;9.508;2022-08-03T04:53:02;12.32;;;8.70;;
5762;SDS011;2906;53.282;9.508;2022-08-03T04:54:03;11.63;;;7.95;;
5762;SDS011;2906;53.282;9.508;2022-08-03T04:55:07;13.30;;;8.50;;
5762;SDS011;2906;53.282;9.508;2022-08-03T04:56:09;10.70;;;8.45;;
5762;SDS011;2906;53.282;9.508;2022-08-03T04:57:11;10.15;;;8.60;;
5762;SDS011;2906;53.282;9.508;2022-08-03T04:58:12;11.07;;;8.15;;
5762;SDS011;2906;53.282;9.508;2022-08-03T04:59:15;11.57;;;7.68;;
5762;SDS011;2906;53.282;9.508;2022-08-03T05:00:17;10.13;;;8.70;;
5762;SDS011;2906;53.282;9.508;2022-08-03T05:01:19;10.02;;;8.43;;
5762;SDS011;2906;53.282;9.508;2022-08-03T05:02:21;12.85;;;8.45;;
5762;SDS011;2906;53.282;9.508;2022-08-03T05:03:24;13.70;;;8.65;;
5762;SDS011;2906;53.282;9.508;2022-08-03T05:04:25;9.18;;;7.88;;
5762;SDS011;2906;53.282;9.508;2022-08-03T05:05:27;13.50;;;8.65;;
5762;SDS011;2906;53.282;9.508;2022-08-03T05:06:29;12.38;;;7.80;;
5762;SDS011;2906;53.282;9.508;2022-08-03T05:07:31;8.52;;;7.45;;
5762;SDS011;2906;53.282;9.508;2022-08-03T05:08:32;14.02;;;8.00;;
5762;SDS011;2906;53.282;9.508;2022-08-03T05:09:34;9.98;;;7.80;;
5762;SDS011;2906;53.282;9.508;2022-08-03T05:10:38;10.75;;;7.82;;
5762;SDS011;2906;53.282;9.508;2022-08-03T05:11:41;11.10;;;8.63;;
5762;SDS011;2906;53.282;9.508;2022-08-03T05:12:43;11.27;;;7.72;;
5762;SDS011;2906;53.282;9.508;2022-08-03T05:13:45;10.70;;;7.75;;
5762;SDS011;2906;53.282;9.508;2022-08-03T05:14:47;9.43;;;7.90;;
5762;SDS011;2906;53.282;9.508;2022-08-03T05:15:49;8.75;;;7.10;;
5762;SDS011;2906;53.282;9.508;2022-08-03T05:16:51;15.60;;;8.05;;
5762;SDS011;2906;53.282;9.508;2022-08-03T05:17:52;9.57;;;7.60;;
5762;SDS011;2906;53.282;9.508;2022-08-03T05:18:54;12.35;;;6.95;;
5762;SDS011;2906;53.282;9.508;2022-08-03T05:19:57;9.18;;;7.28;;
5762;SDS011;2906;53.282;9.508;2022-08-03T05:20:58;8.93;;;7.50;;
5762;SDS011;2906;53.282;9.508;2022-08-03T05:22:00;7.50;;;6.75;;
5762;SDS011;2906;53.282;9.508;2022-08-03T05:23:02;10.57;;;6.95;;
5762;SDS011;2906;53.282;9.508;2022-08-03T05:24:05;11.75;;;7.03;;
5762;SDS011;2906;53.282;9.508;2022-08-03T05:25:06;8.77;;;6.97;;
5762;SDS011;2906;53.282;9.508;2022-08-03T05:26:10;7.72;;;6.80;;
5762;SDS011;2906;53.282;9.508;2022-08-03T05:27:13;7.90;;;6.77;;
5762;SDS011;2906;53.282;9.508;2022-08-03T05:28:18;11.90;;;6.20;;
5762;SDS011;2906;53.282;9.508;2022-08-03T05:29:20;9.80;;;6.37;;
5762;SDS011;2906;53.282;9.508;2022-08-03T05:30:22;9.32;;;7.03;;
5762;SDS011;2906;53.282;9.508;2022-08-03T05:31:24;11.00;;;6.67;;
5762;SDS011;2906;53.282;9.508;2022-08-03T05:32:25;18.43;;;7.07;;
5762;SDS011;2906;53.282;9.508;2022-08-03T05:33:27;12.47;;;7.03;;
5762;SDS011;2906;53.282;9.508;2022-08-03T05:34:30;7.80;;;6.83;;
5762;SDS011;2906;53.282;9.508;2022-08-03T05:35:31;13.30;;;7.03;;
5762;SDS011;2906;53.282;9.508;2022-08-03T05:36:35;12.57;;;6.23;;
5762;SDS011;2906;53.282;9.508;2022-08-03T05:37:36;12.50;;;6.60;;
5762;SDS011;2906;53.282;9.508;2022-08-03T05:38:38;7.83;;;6.20;;
5762;SDS011;2906;53.282;9.508;2022-08-03T05:39:39;10.07;;;6.63;;
5762;SDS011;2906;53.282;9.508;2022-08-03T05:40:42;5.97;;;5.17;;
5762;SDS011;2906;53.282;9.508;2022-08-03T05:41:45;8.50;;;6.50;;
5762;SDS011;2906;53.282;9.508;2022-08-03T05:42:47;10.80;;;6.00;;
5762;SDS011;2906;53.282;9.508;2022-08-03T05:43:49;8.23;;;6.20;;
5762;SDS011;2906;53.282;9.508;2022-08-03T05:44:51;8.50;;;5.90;;
5762;SDS011;2906;53.282;9.508;2022-08-03T05:45:53;9.07;;;5.60;;
5762;SDS011;2906;53.282;9.508;2022-08-03T05:46:55;7.70;;;5.30;;
5762;SDS011;2906;53.282;9.508;2022-08-03T05:47:57;11.63;;;5.37;;
5762;SDS011;2906;53.282;9.508;2022-08-03T05:49:01;6.40;;;5.17;;
5762;SDS011;2906;53.282;9.508;2022-08-03T05:50:03;15.60;;;8.20;;
5762;SDS011;2906;53.282;9.508;2022-08-03T05:51:05;8.00;;;5.10;;
5762;SDS011;2906;53.282;9.508;2022-08-03T05:52:10;6.70;;;5.30;;
5762;SDS011;2906;53.282;9.508;2022-08-03T05:53:11;11.53;;;4.77;;
5762;SDS011;2906;53.282;9.508;2022-08-03T05:54:13;8.60;;;5.73;;
5762;SDS011;2906;53.282;9.508;2022-08-03T05:55:15;6.37;;;4.90;;
5762;SDS011;2906;53.282;9.508;2022-08-03T05:56:20;7.17;;;5.03;;
5762;SDS011;2906;53.282;9.508;2022-08-03T05:57:24;7.63;;;5.20;;
5762;SDS011;2906;53.282;9.508;2022-08-03T05:58:26;6.17;;;4.63;;
5762;SDS011;2906;53.282;9.508;2022-08-03T05:59:27;8.37;;;5.43;;
5762;SDS011;2906;53.282;9.508;2022-08-03T06:00:30;6.67;;;4.67;;
5762;SDS011;2906;53.282;9.508;2022-08-03T06:01:31;7.40;;;4.30;;
5762;SDS011;2906;53.282;9.508;2022-08-03T06:02:33;5.97;;;4.60;;
5762;SDS011;2906;53.282;9.508;2022-08-03T06:03:35;6.13;;;4.10;;
5762;SDS011;2906;53.282;9.508;2022-08-03T06:04:39;6.07;;;4.90;;
5762;SDS011;2906;53.282;9.508;2022-08-03T06:05:41;6.60;;;4.10;;
5762;SDS011;2906;53.282;9.508;2022-08-03T06:06:43;5.70;;;4.53;;
5762;SDS011;2906;53.282;9.508;2022-08-03T06:07:46;7.10;;;4.43;;
5762;SDS011;2906;53.282;9.508;2022-08-03T06:08:48;6.50;;;3.37;;
5762;SDS011;2906;53.282;9.508;2022-08-03T06:09:50;9.20;;;3.83;;
5762;SDS011;2906;53.282;9.508;2022-08-03T06:10:52;5.60;;;3.60;;
5762;SDS011;2906;53.282;9.508;2022-08-03T06:11:54;4.40;;;3.40;;
5762;SDS011;2906;53.282;9.508;2022-08-03T06:12:57;5.90;;;4.00;;
5762;SDS011;2906;53.282;9.508;2022-08-03T06:13:59;5.03;;;3.63;;
5762;SDS011;2906;53.282;9.508;2022-08-03T06:15:01;5.17;;;3.90;;
5762;SDS011;2906;53.282;9.508;2022-08-03T06:16:03;4.97;;;3.50;;
5762;SDS011;2906;53.282;9.508;2022-08-03T06:17:05;7.73;;;3.60;;
5762;SDS011;2906;53.282;9.508;2022-08-03T06:18:06;6.27;;;3.13;;
5762;SDS011;2906;53.282;9.508;2022-08-03T06:19:09;4.40;;;3.00;;
5762;SDS011;2906;53.282;9.508;2022-08-03T06:20:11;5.07;;;3.67;;
5762;SDS011;2906;53.282;9.508;2022-08-03T06:21:12;6.00;;;3.20;;
5762;SDS011;2906;53.282;9.508;2022-08-03T06:22:15;3.83;;;3.13;;
5762;SDS011;2906;53.282;9.508;2022-08-03T06:23:16;8.40;;;3.10;;
5762;SDS011;2906;53.282;9.508;2022-08-03T06:24:18;6.80;;;2.93;;
5762;SDS011;2906;53.282;9.508;2022-08-03T06:25:21;5.17;;;3.13;;
5762;SDS011;2906;53.282;9.508;2022-08-03T06:26:25;3.87;;;2.87;;
5762;SDS011;2906;53.282;9.508;2022-08-03T06:27:28;4.00;;;3.13;;
5762;SDS011;2906;53.282;9.508;2022-08-03T06:28:30;4.17;;;3.13;;
5762;SDS011;2906;53.282;9.508;2022-08-03T06:29:32;5.63;;;3.13;;